sensor_id;sensor_type;location;lat;lon;timestamp;temperature;humidity
6956;DHT22;50345;51.136;16.886;2023-04-30T00:02:15;11.40;99.90
6956;DHT22;50345;51.136;16.886;2023-04-30T00:04:41;11.40;99.90
6956;DHT22;50345;51.136;16.886;2023-04-30T00:07:06;11.50;99.90
6956;DHT22;50345;51.136;16.886;2023-04-30T00:09:32;11.40;99.90
6956;DHT22;50345;51.136;16.886;2023-04-30T00:11:58;11.40;99.90
6956;DHT22;50345;51.136;16.886;2023-04-30T00:14:24;11.30;99.90
6956;DHT22;50345;51.136;16.886;2023-04-30T00:16:49;11.50;99.90
6956;DHT22;50345;51.136;16.886;2023-04-30T00:19:15;11.30;99.90
6956;DHT22;50345;51.136;16.886;2023-04-30T00:21:40;11.30;99.90
6956;DHT22;50345;51.136;16.886;2023-04-30T00:24:06;11.20;99.90
6956;DHT22;50345;51.136;16.886;2023-04-30T00:26:32;11.20;99.90
6956;DHT22;50345;51.136;16.886;2023-04-30T00:28:57;11.20;99.90
6956;DHT22;50345;51.136;16.886;2023-04-30T00:31:23;11.20;99.90
6956;DHT22;50345;51.136;16.886;2023-04-30T00:33:48;11.20;99.90
6956;DHT22;50345;51.136;16.886;2023-04-30T00:36:14;11.20;99.90
6956;DHT22;50345;51.136;16.886;2023-04-30T00:38:40;11.10;99.90
6956;DHT22;50345;51.136;16.886;2023-04-30T00:41:05;11.10;99.90
6956;DHT22;50345;51.136;16.886;2023-04-30T00:43:31;11.10;99.90
6956;DHT22;50345;51.136;16.886;2023-04-30T00:45:58;11.10;99.90
6956;DHT22;50345;51.136;16.886;2023-04-30T00:48:24;11.10;99.90
6956;DHT22;50345;51.136;16.886;2023-04-30T00:50:50;11.10;99.90
6956;DHT22;50345;51.136;16.886;2023-04-30T00:53:16;11.10;99.90
6956;DHT22;50345;51.136;16.886;2023-04-30T00:55:43;11.10;99.90
6956;DHT22;50345;51.136;16.886;2023-04-30T00:58:08;11.10;99.90
6956;DHT22;50345;51.136;16.886;2023-04-30T01:00:34;11.10;99.90
6956;DHT22;50345;51.136;16.886;2023-04-30T01:03:00;11.10;99.90
6956;DHT22;50345;51.136;16.886;2023-04-30T01:05:26;11.20;99.90
6956;DHT22;50345;51.136;16.886;2023-04-30T01:07:52;11.10;99.90
6956;DHT22;50345;51.136;16.886;2023-04-30T01:10:20;11.10;99.90
6956;DHT22;50345;51.136;16.886;2023-04-30T01:13:06;11.10;99.90
6956;DHT22;50345;51.136;16.886;2023-04-30T01:15:45;11.10;99.90
6956;DHT22;50345;51.136;16.886;2023-04-30T01:21:03;11.00;99.90
6956;DHT22;50345;51.136;16.886;2023-04-30T01:26:52;10.90;99.90
6956;DHT22;50345;51.136;16.886;2023-04-30T01:29:21;10.90;99.90
6956;DHT22;50345;51.136;16.886;2023-04-30T01:31:49;10.70;99.90
6956;DHT22;50345;51.136;16.886;2023-04-30T01:34:14;10.70;99.90
6956;DHT22;50345;51.136;16.886;2023-04-30T01:39:53;10.60;99.90
6956;DHT22;50345;51.136;16.886;2023-04-30T01:42:29;10.50;99.90
6956;DHT22;50345;51.136;16.886;2023-04-30T01:45:06;10.40;99.90
6956;DHT22;50345;51.136;16.886;2023-04-30T01:47:46;10.30;99.90
6956;DHT22;50345;51.136;16.886;2023-04-30T01:53:02;10.20;99.90
6956;DHT22;50345;51.136;16.886;2023-04-30T01:55:40;10.10;99.90
6956;DHT22;50345;51.136;16.886;2023-04-30T01:58:09;10.00;99.90
6956;DHT22;50345;51.136;16.886;2023-04-30T02:00:36;10.00;99.90
6956;DHT22;50345;51.136;16.886;2023-04-30T02:03:02;9.90;99.90
6956;DHT22;50345;51.136;16.886;2023-04-30T02:05:28;9.90;99.90
6956;DHT22;50345;51.136;16.886;2023-04-30T02:07:53;9.80;99.90
6956;DHT22;50345;51.136;16.886;2023-04-30T02:10:24;9.70;99.90
6956;DHT22;50345;51.136;16.886;2023-04-30T02:12:49;9.60;99.90
6956;DHT22;50345;51.136;16.886;2023-04-30T02:15:15;9.60;99.90
6956;DHT22;50345;51.136;16.886;2023-04-30T02:17:41;9.50;99.90
6956;DHT22;50345;51.136;16.886;2023-04-30T02:20:07;9.50;99.90
6956;DHT22;50345;51.136;16.886;2023-04-30T02:22:33;9.40;99.90
6956;DHT22;50345;51.136;16.886;2023-04-30T02:24:58;9.40;99.90
6956;DHT22;50345;51.136;16.886;2023-04-30T02:27:25;9.40;99.90
6956;DHT22;50345;51.136;16.886;2023-04-30T02:29:51;9.30;99.90
6956;DHT22;50345;51.136;16.886;2023-04-30T02:32:17;9.30;99.90
6956;DHT22;50345;51.136;16.886;2023-04-30T02:34:43;9.20;99.90
6956;DHT22;50345;51.136;16.886;2023-04-30T02:37:12;9.20;99.90
6956;DHT22;50345;51.136;16.886;2023-04-30T02:39:37;9.10;99.90
6956;DHT22;50345;51.136;16.886;2023-04-30T02:42:03;9.10;99.90
6956;DHT22;50345;51.136;16.886;2023-04-30T02:44:31;9.00;99.90
6956;DHT22;50345;51.136;16.886;2023-04-30T02:46:56;8.90;99.90
6956;DHT22;50345;51.136;16.886;2023-04-30T02:49:22;8.90;99.90
6956;DHT22;50345;51.136;16.886;2023-04-30T02:51:47;8.80;99.90
6956;DHT22;50345;51.136;16.886;2023-04-30T02:54:13;8.80;99.90
6956;DHT22;50345;51.136;16.886;2023-04-30T02:56:38;8.80;99.90
6956;DHT22;50345;51.136;16.886;2023-04-30T02:59:04;8.70;99.90
6956;DHT22;50345;51.136;16.886;2023-04-30T03:01:30;8.70;99.90
6956;DHT22;50345;51.136;16.886;2023-04-30T03:03:56;8.70;99.90
6956;DHT22;50345;51.136;16.886;2023-04-30T03:06:22;8.60;99.90
6956;DHT22;50345;51.136;16.886;2023-04-30T03:08:48;8.60;99.90
6956;DHT22;50345;51.136;16.886;2023-04-30T03:11:13;8.50;99.90
6956;DHT22;50345;51.136;16.886;2023-04-30T03:13:41;8.50;99.90
6956;DHT22;50345;51.136;16.886;2023-04-30T03:16:07;8.50;99.90
6956;DHT22;50345;51.136;16.886;2023-04-30T03:18:32;8.40;99.90
6956;DHT22;50345;51.136;16.886;2023-04-30T03:20:58;8.40;99.90
6956;DHT22;50345;51.136;16.886;2023-04-30T03:23:26;8.40;99.90
6956;DHT22;50345;51.136;16.886;2023-04-30T03:25:52;8.30;99.90
6956;DHT22;50345;51.136;16.886;2023-04-30T03:28:18;8.30;99.90
6956;DHT22;50345;51.136;16.886;2023-04-30T03:30:43;8.30;99.90
6956;DHT22;50345;51.136;16.886;2023-04-30T03:33:09;8.20;99.90
6956;DHT22;50345;51.136;16.886;2023-04-30T03:35:35;8.20;99.90
6956;DHT22;50345;51.136;16.886;2023-04-30T03:38:01;8.20;99.90
6956;DHT22;50345;51.136;16.886;2023-04-30T03:40:26;8.10;99.90
6956;DHT22;50345;51.136;16.886;2023-04-30T03:42:52;8.10;99.90
6956;DHT22;50345;51.136;16.886;2023-04-30T03:45:18;8.10;99.90
6956;DHT22;50345;51.136;16.886;2023-04-30T03:47:44;8.10;99.90
6956;DHT22;50345;51.136;16.886;2023-04-30T03:50:10;8.00;99.90
6956;DHT22;50345;51.136;16.886;2023-04-30T03:52:36;8.00;99.90
6956;DHT22;50345;51.136;16.886;2023-04-30T03:55:02;8.00;99.90
6956;DHT22;50345;51.136;16.886;2023-04-30T03:57:28;8.00;99.90
6956;DHT22;50345;51.136;16.886;2023-04-30T03:59:54;8.00;99.90
6956;DHT22;50345;51.136;16.886;2023-04-30T04:02:19;8.00;99.90
6956;DHT22;50345;51.136;16.886;2023-04-30T04:04:46;8.00;99.90
6956;DHT22;50345;51.136;16.886;2023-04-30T04:07:12;8.00;99.90
6956;DHT22;50345;51.136;16.886;2023-04-30T04:09:37;8.00;99.90
6956;DHT22;50345;51.136;16.886;2023-04-30T04:12:03;8.00;99.90
6956;DHT22;50345;51.136;16.886;2023-04-30T04:14:29;7.90;99.90
6956;DHT22;50345;51.136;16.886;2023-04-30T04:16:55;8.00;99.90
6956;DHT22;50345;51.136;16.886;2023-04-30T04:19:22;8.00;99.90
6956;DHT22;50345;51.136;16.886;2023-04-30T04:21:48;8.00;99.90
6956;DHT22;50345;51.136;16.886;2023-04-30T04:24:13;8.10;99.90
6956;DHT22;50345;51.136;16.886;2023-04-30T04:26:39;8.10;99.90
6956;DHT22;50345;51.136;16.886;2023-04-30T04:29:08;8.20;99.90
6956;DHT22;50345;51.136;16.886;2023-04-30T04:31:34;8.20;99.90
6956;DHT22;50345;51.136;16.886;2023-04-30T04:34:02;8.30;99.90
6956;DHT22;50345;51.136;16.886;2023-04-30T04:36:29;8.30;99.90
6956;DHT22;50345;51.136;16.886;2023-04-30T04:38:57;8.40;99.90
6956;DHT22;50345;51.136;16.886;2023-04-30T04:41:29;8.40;99.90
6956;DHT22;50345;51.136;16.886;2023-04-30T04:43:57;8.40;99.90
6956;DHT22;50345;51.136;16.886;2023-04-30T04:46:24;8.40;99.90
6956;DHT22;50345;51.136;16.886;2023-04-30T04:48:50;8.40;99.90
6956;DHT22;50345;51.136;16.886;2023-04-30T04:51:15;8.50;99.90
6956;DHT22;50345;51.136;16.886;2023-04-30T04:53:41;8.50;99.90
6956;DHT22;50345;51.136;16.886;2023-04-30T04:56:07;8.50;99.90
6956;DHT22;50345;51.136;16.886;2023-04-30T04:58:33;8.50;99.90
6956;DHT22;50345;51.136;16.886;2023-04-30T05:00:59;8.60;99.90
6956;DHT22;50345;51.136;16.886;2023-04-30T05:03:29;8.60;99.90
6956;DHT22;50345;51.136;16.886;2023-04-30T05:05:55;8.60;99.90
6956;DHT22;50345;51.136;16.886;2023-04-30T05:08:20;8.70;99.90
6956;DHT22;50345;51.136;16.886;2023-04-30T05:10:46;8.70;99.90
6956;DHT22;50345;51.136;16.886;2023-04-30T05:13:11;8.90;99.90
6956;DHT22;50345;51.136;16.886;2023-04-30T05:15:37;9.10;99.90
6956;DHT22;50345;51.136;16.886;2023-04-30T05:18:03;9.30;99.90
6956;DHT22;50345;51.136;16.886;2023-04-30T05:20:28;9.70;99.90
6956;DHT22;50345;51.136;16.886;2023-04-30T05:22:54;9.90;99.90
6956;DHT22;50345;51.136;16.886;2023-04-30T05:25:20;10.10;99.90
6956;DHT22;50345;51.136;16.886;2023-04-30T05:27:45;10.20;99.90
6956;DHT22;50345;51.136;16.886;2023-04-30T05:30:11;10.30;99.90
6956;DHT22;50345;51.136;16.886;2023-04-30T05:32:37;10.30;99.90
6956;DHT22;50345;51.136;16.886;2023-04-30T05:35:03;10.30;99.90
6956;DHT22;50345;51.136;16.886;2023-04-30T05:37:28;10.20;99.90
6956;DHT22;50345;51.136;16.886;2023-04-30T05:39:54;10.00;99.90
6956;DHT22;50345;51.136;16.886;2023-04-30T05:42:20;9.90;99.90
6956;DHT22;50345;51.136;16.886;2023-04-30T05:44:45;9.80;99.90
6956;DHT22;50345;51.136;16.886;2023-04-30T05:47:11;9.80;99.90
6956;DHT22;50345;51.136;16.886;2023-04-30T05:49:37;9.70;99.90
6956;DHT22;50345;51.136;16.886;2023-04-30T05:52:02;9.70;99.90
6956;DHT22;50345;51.136;16.886;2023-04-30T05:54:29;9.70;99.90
6956;DHT22;50345;51.136;16.886;2023-04-30T05:56:55;9.70;99.90
6956;DHT22;50345;51.136;16.886;2023-04-30T05:59:20;9.70;99.90
6956;DHT22;50345;51.136;16.886;2023-04-30T06:01:46;9.70;99.90
6956;DHT22;50345;51.136;16.886;2023-04-30T06:04:11;9.80;99.90
6956;DHT22;50345;51.136;16.886;2023-04-30T06:06:37;9.90;99.90
6956;DHT22;50345;51.136;16.886;2023-04-30T06:09:03;9.90;99.90
6956;DHT22;50345;51.136;16.886;2023-04-30T06:11:29;9.90;99.90
6956;DHT22;50345;51.136;16.886;2023-04-30T06:13:55;9.90;99.90
6956;DHT22;50345;51.136;16.886;2023-04-30T06:16:21;9.90;99.90
6956;DHT22;50345;51.136;16.886;2023-04-30T06:18:46;9.90;99.90
6956;DHT22;50345;51.136;16.886;2023-04-30T06:21:12;10.00;99.90
6956;DHT22;50345;51.136;16.886;2023-04-30T06:23:38;10.00;99.90
6956;DHT22;50345;51.136;16.886;2023-04-30T06:26:03;10.10;99.90
6956;DHT22;50345;51.136;16.886;2023-04-30T06:28:29;10.20;99.90
6956;DHT22;50345;51.136;16.886;2023-04-30T06:30:54;10.30;99.90
6956;DHT22;50345;51.136;16.886;2023-04-30T06:33:20;10.40;99.90
6956;DHT22;50345;51.136;16.886;2023-04-30T06:35:46;10.50;99.90
6956;DHT22;50345;51.136;16.886;2023-04-30T06:38:12;10.60;99.90
6956;DHT22;50345;51.136;16.886;2023-04-30T06:40:38;10.80;99.90
6956;DHT22;50345;51.136;16.886;2023-04-30T06:43:04;10.90;99.90
6956;DHT22;50345;51.136;16.886;2023-04-30T06:45:30;11.10;99.90
6956;DHT22;50345;51.136;16.886;2023-04-30T06:47:55;11.20;99.90
6956;DHT22;50345;51.136;16.886;2023-04-30T06:50:21;11.20;99.90
6956;DHT22;50345;51.136;16.886;2023-04-30T06:52:47;11.20;99.90
6956;DHT22;50345;51.136;16.886;2023-04-30T06:55:13;11.20;99.90
6956;DHT22;50345;51.136;16.886;2023-04-30T06:57:38;11.10;99.90
6956;DHT22;50345;51.136;16.886;2023-04-30T07:00:05;11.00;99.90
6956;DHT22;50345;51.136;16.886;2023-04-30T07:02:31;11.00;99.90
6956;DHT22;50345;51.136;16.886;2023-04-30T07:04:57;11.10;99.90
6956;DHT22;50345;51.136;16.886;2023-04-30T07:07:23;11.10;99.90
6956;DHT22;50345;51.136;16.886;2023-04-30T07:09:48;11.10;99.90
6956;DHT22;50345;51.136;16.886;2023-04-30T07:12:14;11.10;99.90
6956;DHT22;50345;51.136;16.886;2023-04-30T07:14:40;11.20;99.90
6956;DHT22;50345;51.136;16.886;2023-04-30T07:17:06;11.20;99.90
6956;DHT22;50345;51.136;16.886;2023-04-30T07:19:31;11.20;99.90
6956;DHT22;50345;51.136;16.886;2023-04-30T07:21:57;11.20;99.90
6956;DHT22;50345;51.136;16.886;2023-04-30T07:24:23;11.20;99.90
6956;DHT22;50345;51.136;16.886;2023-04-30T07:26:49;11.20;99.90
6956;DHT22;50345;51.136;16.886;2023-04-30T07:29:15;11.30;99.90
6956;DHT22;50345;51.136;16.886;2023-04-30T07:31:40;11.40;99.90
6956;DHT22;50345;51.136;16.886;2023-04-30T07:34:06;11.70;99.90
6956;DHT22;50345;51.136;16.886;2023-04-30T07:36:31;11.90;99.90
6956;DHT22;50345;51.136;16.886;2023-04-30T07:38:57;12.20;99.90
6956;DHT22;50345;51.136;16.886;2023-04-30T07:41:24;12.60;99.90
6956;DHT22;50345;51.136;16.886;2023-04-30T07:43:50;12.90;99.90
6956;DHT22;50345;51.136;16.886;2023-04-30T07:46:15;13.10;99.90
6956;DHT22;50345;51.136;16.886;2023-04-30T07:48:41;13.10;99.90
6956;DHT22;50345;51.136;16.886;2023-04-30T07:51:06;13.30;99.90
6956;DHT22;50345;51.136;16.886;2023-04-30T07:53:32;13.70;99.90
6956;DHT22;50345;51.136;16.886;2023-04-30T07:55:57;13.90;99.90
6956;DHT22;50345;51.136;16.886;2023-04-30T07:58:23;14.40;99.90
6956;DHT22;50345;51.136;16.886;2023-04-30T08:00:49;14.60;99.90
6956;DHT22;50345;51.136;16.886;2023-04-30T08:03:14;14.90;99.90
6956;DHT22;50345;51.136;16.886;2023-04-30T08:08:06;15.00;99.90
6956;DHT22;50345;51.136;16.886;2023-04-30T08:10:32;15.00;99.90
6956;DHT22;50345;51.136;16.886;2023-04-30T08:12:58;15.00;99.40
6956;DHT22;50345;51.136;16.886;2023-04-30T08:15:24;15.10;99.80
6956;DHT22;50345;51.136;16.886;2023-04-30T08:17:50;15.30;97.50
6956;DHT22;50345;51.136;16.886;2023-04-30T08:20:16;15.40;95.50
6956;DHT22;50345;51.136;16.886;2023-04-30T08:22:43;15.50;94.10
6956;DHT22;50345;51.136;16.886;2023-04-30T08:25:11;15.80;93.00
6956;DHT22;50345;51.136;16.886;2023-04-30T08:27:37;16.10;91.30
6956;DHT22;50345;51.136;16.886;2023-04-30T08:30:04;16.30;85.70
6956;DHT22;50345;51.136;16.886;2023-04-30T08:32:33;16.40;88.10
6956;DHT22;50345;51.136;16.886;2023-04-30T08:34:58;16.50;83.30
6956;DHT22;50345;51.136;16.886;2023-04-30T08:37:24;16.40;81.40
6956;DHT22;50345;51.136;16.886;2023-04-30T08:39:49;16.30;77.90
6956;DHT22;50345;51.136;16.886;2023-04-30T08:42:16;16.20;79.00
6956;DHT22;50345;51.136;16.886;2023-04-30T08:44:43;16.30;77.40
6956;DHT22;50345;51.136;16.886;2023-04-30T08:47:10;16.40;77.50
6956;DHT22;50345;51.136;16.886;2023-04-30T08:49:40;16.30;71.50
6956;DHT22;50345;51.136;16.886;2023-04-30T08:52:06;16.00;70.80
6956;DHT22;50345;51.136;16.886;2023-04-30T08:54:33;16.00;73.60
6956;DHT22;50345;51.136;16.886;2023-04-30T08:56:59;16.10;74.60
6956;DHT22;50345;51.136;16.886;2023-04-30T08:59:25;16.20;70.30
6956;DHT22;50345;51.136;16.886;2023-04-30T09:01:50;16.20;66.90
6956;DHT22;50345;51.136;16.886;2023-04-30T09:04:16;16.20;67.80
6956;DHT22;50345;51.136;16.886;2023-04-30T09:06:42;18.50;64.60
6956;DHT22;50345;51.136;16.886;2023-04-30T09:09:13;19.40;61.10
6956;DHT22;50345;51.136;16.886;2023-04-30T09:11:40;22.30;52.10
6956;DHT22;50345;51.136;16.886;2023-04-30T09:14:06;23.50;46.20
6956;DHT22;50345;51.136;16.886;2023-04-30T09:16:49;23.60;47.30
6956;DHT22;50345;51.136;16.886;2023-04-30T09:19:29;24.80;41.50
6956;DHT22;50345;51.136;16.886;2023-04-30T09:21:55;26.30;39.30
6956;DHT22;50345;51.136;16.886;2023-04-30T09:24:22;26.60;37.20
6956;DHT22;50345;51.136;16.886;2023-04-30T09:26:48;27.80;36.20
6956;DHT22;50345;51.136;16.886;2023-04-30T09:29:15;29.20;34.30
6956;DHT22;50345;51.136;16.886;2023-04-30T09:31:44;30.00;31.40
6956;DHT22;50345;51.136;16.886;2023-04-30T09:34:10;30.70;30.00
6956;DHT22;50345;51.136;16.886;2023-04-30T09:36:36;31.80;28.90
6956;DHT22;50345;51.136;16.886;2023-04-30T09:39:11;32.50;26.80
6956;DHT22;50345;51.136;16.886;2023-04-30T09:41:38;32.90;27.70
6956;DHT22;50345;51.136;16.886;2023-04-30T09:44:04;33.40;27.80
6956;DHT22;50345;51.136;16.886;2023-04-30T09:46:34;33.70;27.50
6956;DHT22;50345;51.136;16.886;2023-04-30T09:49:02;34.20;27.20
6956;DHT22;50345;51.136;16.886;2023-04-30T09:51:28;34.60;25.50
6956;DHT22;50345;51.136;16.886;2023-04-30T09:53:54;34.80;26.10
6956;DHT22;50345;51.136;16.886;2023-04-30T09:56:22;35.10;25.20
6956;DHT22;50345;51.136;16.886;2023-04-30T09:58:50;35.30;25.60
6956;DHT22;50345;51.136;16.886;2023-04-30T10:01:25;35.40;26.20
6956;DHT22;50345;51.136;16.886;2023-04-30T10:03:52;35.40;25.00
6956;DHT22;50345;51.136;16.886;2023-04-30T10:06:20;35.40;24.00
6956;DHT22;50345;51.136;16.886;2023-04-30T10:08:52;35.40;24.30
6956;DHT22;50345;51.136;16.886;2023-04-30T10:11:25;35.30;23.90
6956;DHT22;50345;51.136;16.886;2023-04-30T10:14:01;35.10;24.40
6956;DHT22;50345;51.136;16.886;2023-04-30T10:16:47;35.00;24.60
6956;DHT22;50345;51.136;16.886;2023-04-30T10:19:21;35.20;23.80
6956;DHT22;50345;51.136;16.886;2023-04-30T10:21:48;35.00;24.40
6956;DHT22;50345;51.136;16.886;2023-04-30T10:24:14;34.70;25.40
6956;DHT22;50345;51.136;16.886;2023-04-30T10:26:42;34.20;24.90
6956;DHT22;50345;51.136;16.886;2023-04-30T10:29:09;33.50;25.80
6956;DHT22;50345;51.136;16.886;2023-04-30T10:31:35;32.90;25.40
6956;DHT22;50345;51.136;16.886;2023-04-30T10:36:41;30.90;25.70
6956;DHT22;50345;51.136;16.886;2023-04-30T10:39:09;30.90;26.40
6956;DHT22;50345;51.136;16.886;2023-04-30T10:41:38;30.90;26.60
6956;DHT22;50345;51.136;16.886;2023-04-30T10:44:11;31.20;26.30
6956;DHT22;50345;51.136;16.886;2023-04-30T10:46:36;31.90;26.10
6956;DHT22;50345;51.136;16.886;2023-04-30T10:49:02;32.60;26.40
6956;DHT22;50345;51.136;16.886;2023-04-30T10:51:45;33.30;25.20
6956;DHT22;50345;51.136;16.886;2023-04-30T10:54:14;34.30;23.80
6956;DHT22;50345;51.136;16.886;2023-04-30T10:56:43;34.40;23.60
6956;DHT22;50345;51.136;16.886;2023-04-30T10:59:09;34.60;23.90
6956;DHT22;50345;51.136;16.886;2023-04-30T11:01:57;34.80;24.10
6956;DHT22;50345;51.136;16.886;2023-04-30T11:04:23;35.30;22.90
6956;DHT22;50345;51.136;16.886;2023-04-30T11:09:18;35.60;23.20
6956;DHT22;50345;51.136;16.886;2023-04-30T11:11:46;35.80;21.80
6956;DHT22;50345;51.136;16.886;2023-04-30T11:14:19;35.80;23.00
6956;DHT22;50345;51.136;16.886;2023-04-30T11:16:48;35.70;23.30
6956;DHT22;50345;51.136;16.886;2023-04-30T11:19:15;35.80;23.10
6956;DHT22;50345;51.136;16.886;2023-04-30T11:22:13;35.50;22.10
6956;DHT22;50345;51.136;16.886;2023-04-30T11:27:22;35.00;23.20
6956;DHT22;50345;51.136;16.886;2023-04-30T11:29:49;34.80;22.90
6956;DHT22;50345;51.136;16.886;2023-04-30T11:32:19;34.90;22.60
6956;DHT22;50345;51.136;16.886;2023-04-30T11:34:46;35.00;21.90
6956;DHT22;50345;51.136;16.886;2023-04-30T11:37:17;34.40;22.20
6956;DHT22;50345;51.136;16.886;2023-04-30T11:39:43;34.00;22.50
6956;DHT22;50345;51.136;16.886;2023-04-30T11:42:14;34.00;23.30
6956;DHT22;50345;51.136;16.886;2023-04-30T11:44:39;33.70;23.60
6956;DHT22;50345;51.136;16.886;2023-04-30T11:47:05;33.70;23.20
6956;DHT22;50345;51.136;16.886;2023-04-30T11:49:31;33.70;22.40
6956;DHT22;50345;51.136;16.886;2023-04-30T11:51:57;33.30;23.80
6956;DHT22;50345;51.136;16.886;2023-04-30T11:54:23;33.10;23.70
6956;DHT22;50345;51.136;16.886;2023-04-30T11:56:49;33.30;23.80
6956;DHT22;50345;51.136;16.886;2023-04-30T11:59:16;33.40;23.60
6956;DHT22;50345;51.136;16.886;2023-04-30T12:01:42;33.70;23.30
6956;DHT22;50345;51.136;16.886;2023-04-30T12:04:08;33.80;23.80
6956;DHT22;50345;51.136;16.886;2023-04-30T12:06:35;33.60;23.30
6956;DHT22;50345;51.136;16.886;2023-04-30T12:09:03;33.70;23.20
6956;DHT22;50345;51.136;16.886;2023-04-30T12:11:34;33.50;23.40
6956;DHT22;50345;51.136;16.886;2023-04-30T12:14:01;33.60;23.60
6956;DHT22;50345;51.136;16.886;2023-04-30T12:16:38;33.70;23.80
6956;DHT22;50345;51.136;16.886;2023-04-30T12:19:04;33.40;23.60
6956;DHT22;50345;51.136;16.886;2023-04-30T12:21:30;32.90;24.20
6956;DHT22;50345;51.136;16.886;2023-04-30T12:23:55;33.10;23.30
6956;DHT22;50345;51.136;16.886;2023-04-30T12:26:21;33.10;22.70
6956;DHT22;50345;51.136;16.886;2023-04-30T12:28:47;32.80;23.00
6956;DHT22;50345;51.136;16.886;2023-04-30T12:31:17;32.70;22.90
6956;DHT22;50345;51.136;16.886;2023-04-30T12:33:43;32.50;23.90
6956;DHT22;50345;51.136;16.886;2023-04-30T12:36:12;32.50;23.90
6956;DHT22;50345;51.136;16.886;2023-04-30T12:38:47;32.30;24.50
6956;DHT22;50345;51.136;16.886;2023-04-30T12:41:12;32.70;24.10
6956;DHT22;50345;51.136;16.886;2023-04-30T12:43:39;33.10;24.30
6956;DHT22;50345;51.136;16.886;2023-04-30T12:46:05;33.50;24.00
6956;DHT22;50345;51.136;16.886;2023-04-30T12:48:44;34.00;23.40
6956;DHT22;50345;51.136;16.886;2023-04-30T12:51:10;34.00;21.80
6956;DHT22;50345;51.136;16.886;2023-04-30T12:53:44;34.00;22.40
6956;DHT22;50345;51.136;16.886;2023-04-30T12:56:12;33.80;22.70
6956;DHT22;50345;51.136;16.886;2023-04-30T12:58:39;33.70;23.30
6956;DHT22;50345;51.136;16.886;2023-04-30T13:01:09;33.70;23.60
6956;DHT22;50345;51.136;16.886;2023-04-30T13:03:36;33.80;23.60
6956;DHT22;50345;51.136;16.886;2023-04-30T13:06:01;34.00;22.70
6956;DHT22;50345;51.136;16.886;2023-04-30T13:08:29;34.50;22.10
6956;DHT22;50345;51.136;16.886;2023-04-30T13:10:54;34.60;22.20
6956;DHT22;50345;51.136;16.886;2023-04-30T13:13:20;34.50;22.50
6956;DHT22;50345;51.136;16.886;2023-04-30T13:15:46;34.30;22.20
6956;DHT22;50345;51.136;16.886;2023-04-30T13:18:12;34.30;23.00
6956;DHT22;50345;51.136;16.886;2023-04-30T13:20:40;34.80;21.60
6956;DHT22;50345;51.136;16.886;2023-04-30T13:23:05;35.00;21.90
6956;DHT22;50345;51.136;16.886;2023-04-30T13:25:32;34.90;21.70
6956;DHT22;50345;51.136;16.886;2023-04-30T13:27:58;35.00;22.00
6956;DHT22;50345;51.136;16.886;2023-04-30T13:30:24;35.30;21.40
6956;DHT22;50345;51.136;16.886;2023-04-30T13:32:49;35.50;21.80
6956;DHT22;50345;51.136;16.886;2023-04-30T13:35:16;35.50;21.80
6956;DHT22;50345;51.136;16.886;2023-04-30T13:37:42;35.60;21.70
6956;DHT22;50345;51.136;16.886;2023-04-30T13:40:08;36.00;20.80
6956;DHT22;50345;51.136;16.886;2023-04-30T13:42:36;35.90;21.20
6956;DHT22;50345;51.136;16.886;2023-04-30T13:45:02;36.30;21.60
6956;DHT22;50345;51.136;16.886;2023-04-30T13:47:28;36.60;21.00
6956;DHT22;50345;51.136;16.886;2023-04-30T13:49:54;36.80;20.50
6956;DHT22;50345;51.136;16.886;2023-04-30T13:52:19;36.80;20.80
6956;DHT22;50345;51.136;16.886;2023-04-30T13:54:45;36.60;21.50
6956;DHT22;50345;51.136;16.886;2023-04-30T13:57:10;37.20;20.10
6956;DHT22;50345;51.136;16.886;2023-04-30T13:59:36;37.20;20.70
6956;DHT22;50345;51.136;16.886;2023-04-30T14:02:02;37.50;20.70
6956;DHT22;50345;51.136;16.886;2023-04-30T14:04:28;37.50;20.50
6956;DHT22;50345;51.136;16.886;2023-04-30T14:11:48;38.40;19.60
6956;DHT22;50345;51.136;16.886;2023-04-30T14:14:13;38.40;20.00
6956;DHT22;50345;51.136;16.886;2023-04-30T14:16:39;38.50;20.10
6956;DHT22;50345;51.136;16.886;2023-04-30T14:19:05;38.70;20.00
6956;DHT22;50345;51.136;16.886;2023-04-30T14:21:30;38.90;19.80
6956;DHT22;50345;51.136;16.886;2023-04-30T14:23:57;38.80;19.50
6956;DHT22;50345;51.136;16.886;2023-04-30T14:26:23;38.80;19.40
6956;DHT22;50345;51.136;16.886;2023-04-30T14:28:48;38.80;19.50
6956;DHT22;50345;51.136;16.886;2023-04-30T14:31:14;39.00;19.40
6956;DHT22;50345;51.136;16.886;2023-04-30T14:33:40;38.70;19.30
6956;DHT22;50345;51.136;16.886;2023-04-30T14:36:06;38.60;19.20
6956;DHT22;50345;51.136;16.886;2023-04-30T14:38:32;38.70;19.40
6956;DHT22;50345;51.136;16.886;2023-04-30T14:40:58;38.20;18.60
6956;DHT22;50345;51.136;16.886;2023-04-30T14:43:23;37.60;19.30
6956;DHT22;50345;51.136;16.886;2023-04-30T14:45:50;37.70;19.60
6956;DHT22;50345;51.136;16.886;2023-04-30T14:48:16;38.10;19.20
6956;DHT22;50345;51.136;16.886;2023-04-30T14:50:43;38.40;19.00
6956;DHT22;50345;51.136;16.886;2023-04-30T14:53:08;38.60;19.10
6956;DHT22;50345;51.136;16.886;2023-04-30T14:55:36;38.80;19.20
6956;DHT22;50345;51.136;16.886;2023-04-30T14:58:02;39.20;18.50
6956;DHT22;50345;51.136;16.886;2023-04-30T15:00:27;39.50;18.40
6956;DHT22;50345;51.136;16.886;2023-04-30T15:02:53;39.80;18.00
6956;DHT22;50345;51.136;16.886;2023-04-30T15:05:19;39.80;17.80
6956;DHT22;50345;51.136;16.886;2023-04-30T15:07:45;39.60;18.20
6956;DHT22;50345;51.136;16.886;2023-04-30T15:10:11;39.60;18.10
6956;DHT22;50345;51.136;16.886;2023-04-30T15:12:37;39.50;18.50
6956;DHT22;50345;51.136;16.886;2023-04-30T15:15:04;39.30;18.50
6956;DHT22;50345;51.136;16.886;2023-04-30T15:17:30;39.00;18.50
6956;DHT22;50345;51.136;16.886;2023-04-30T15:19:59;38.80;18.60
6956;DHT22;50345;51.136;16.886;2023-04-30T15:22:26;38.50;18.70
6956;DHT22;50345;51.136;16.886;2023-04-30T15:24:52;38.20;18.70
6956;DHT22;50345;51.136;16.886;2023-04-30T15:27:18;37.70;19.10
6956;DHT22;50345;51.136;16.886;2023-04-30T15:29:43;37.30;19.30
6956;DHT22;50345;51.136;16.886;2023-04-30T15:32:11;36.90;19.60
6956;DHT22;50345;51.136;16.886;2023-04-30T15:34:37;36.70;19.60
6956;DHT22;50345;51.136;16.886;2023-04-30T15:37:03;36.50;19.80
6956;DHT22;50345;51.136;16.886;2023-04-30T15:39:29;36.20;20.00
6956;DHT22;50345;51.136;16.886;2023-04-30T15:41:54;35.10;20.00
6956;DHT22;50345;51.136;16.886;2023-04-30T15:44:20;34.90;20.00
6956;DHT22;50345;51.136;16.886;2023-04-30T15:46:45;34.70;20.50
6956;DHT22;50345;51.136;16.886;2023-04-30T15:49:11;34.20;20.30
6956;DHT22;50345;51.136;16.886;2023-04-30T15:51:37;34.10;20.90
6956;DHT22;50345;51.136;16.886;2023-04-30T15:54:03;33.90;20.70
6956;DHT22;50345;51.136;16.886;2023-04-30T15:56:33;33.80;21.40
6956;DHT22;50345;51.136;16.886;2023-04-30T15:58:58;33.50;21.10
6956;DHT22;50345;51.136;16.886;2023-04-30T16:01:24;33.40;21.50